Flight Track Log - Related Links

Times and Time Zones

All times are in EDT time to prevent confusion due to time zone crossing. See the EJA370 flight status page for this flight to view local times or setup timezone preferences in your user account.

Time Position Orientation Groundspeed Altitude Reporting Facility
EDT Latitude Longitude Course Direction KTS MPH feet Rate Location/Type
Thu 10:06:31 AM 29.6119 -95.6547 179° South 137 158 1,000  Level Houston Center
Thu 10:07:33 AM 29.5614 -95.6536 179° South 193 222 2,800 2,100 Climbing Houston Center
Thu 10:08:11 AM 29.5286 -95.6494 174° South 188 216 4,500 2,687 Climbing Houston Center
Thu 10:08:40 AM 29.4989 -95.6344 156° South 253 291 5,800 2,710 Climbing Houston Center
Thu 10:09:13 AM 29.4764 -95.5994 126° Southeast 266 306 7,300 2,836 Climbing Houston Center
Thu 10:09:35 AM 29.4553 -95.5700 129° Southeast 287 330 8,400 2,419 Climbing Houston Center
Thu 10:10:15 AM 29.4253 -95.5264 128° Southeast 295 339 9,800 3,344 Climbing Houston Center
Thu 10:10:36 AM 29.4303 -95.4794 83° East 323 372 11,800 3,774 Climbing Houston Center
Thu 10:11:17 AM 29.4500 -95.4331 64° Northeast 317 365 13,700 2,214 Climbing Houston Center
Thu 10:12:19 AM 29.4733 -95.3250 76° East 353 406 15,600 2,419 Climbing Houston Center
Thu 10:13:21 AM 29.5094 -95.1797 74° East 399 459 18,700 2,661 Climbing Houston Center
Thu 10:14:23 AM 29.5403 -95.0594 74° East 404 465 21,100 1,984 Climbing Houston Center
Thu 10:15:25 AM 29.5736 -94.9344 73° East 415 478 22,800 1,742 Climbing Houston Center
Thu 10:16:27 AM 29.6072 -94.7975 74° East 446 513 24,700 2,064 Climbing Houston Center
Thu 10:17:30 AM 29.6286 -94.6236 82° East 457 526 27,100 2,112 Climbing Houston Center
Thu 10:18:32 AM 29.6425 -94.4758 84° East 464 534 29,100 1,935 Climbing Houston Center
Thu 10:19:34 AM 29.6586 -94.3275 83° East 468 539 31,100 1,935 Climbing Houston Center
Thu 10:20:36 AM 29.6731 -94.1792 84° East 468 539 33,100 2,226 Climbing Houston Center
Thu 10:21:38 AM 29.6861 -94.0256 84° East 454 522 35,700 1,839 Climbing Houston Center
Thu 10:22:40 AM 29.7019 -93.8889 82° East 445 512 36,900 1,065 Climbing Houston Center
Thu 10:23:42 AM 29.7578 -93.7619 63° Northeast 448 516 37,900 1,065 Climbing Houston Center
Thu 10:24:44 AM 29.8292 -93.6081 62° Northeast 454 522 39,100 1,065 Climbing Houston Center
Thu 10:25:46 AM 29.8875 -93.4772 63° Northeast 460 529 40,100 912 Climbing Houston Center
Thu 10:26:49 AM 29.9472 -93.3486 62° Northeast 460 529 41,000 432 Climbing Houston Center
Thu 10:27:51 AM 30.0072 -93.2158 62° Northeast 471 542 41,000  Level Houston Center
Thu 10:28:53 AM 30.0703 -93.0778 62° Northeast 490 564 41,000  Level Houston Center
Thu 10:29:55 AM 30.1467 -92.9089 62° Northeast 499 574 41,000  Level Houston Center
Thu 10:30:57 AM 30.2122 -92.7633 62° Northeast 510 587 41,000  Level Houston Center
Thu 10:31:59 AM 30.2767 -92.6167 63° Northeast 514 592 41,000  Level Houston Center
Thu 10:33:01 AM 30.3422 -92.4733 62° Northeast 511 588 41,000  Level Houston Center
Thu 10:34:03 AM 30.4092 -92.3211 63° Northeast 508 585 41,000  Level Houston Center
Thu 10:35:05 AM 30.4731 -92.1792 62° Northeast 503 579 41,000  Level Houston Center
Thu 10:36:08 AM 30.5503 -92.0069 62° Northeast 503 579 41,000  Level Houston Center
Thu 10:37:10 AM 30.6131 -91.8644 63° Northeast 501 577 41,000  Level Houston Center
Thu 10:38:12 AM 30.6769 -91.7206 63° Northeast 503 579 41,000  Level Houston Center
Thu 10:39:14 AM 30.7400 -91.5761 63° Northeast 505 581 41,000  Level Houston Center
Thu 10:40:16 AM 30.8028 -91.4314 63° Northeast 504 580 41,000  Level Houston Center
Thu 10:41:18 AM 30.8783 -91.2586 63° Northeast 502 578 41,000  Level Houston Center
Thu 10:42:20 AM 30.9419 -91.1133 63° Northeast 505 581 41,000  Level Houston Center
Thu 10:43:22 AM 31.0017 -90.9706 64° Northeast 501 577 41,000  Level Houston Center
Thu 10:44:24 AM 31.0642 -90.8247 63° Northeast 502 578 41,000  Level Houston Center
Thu 10:45:27 AM 31.1269 -90.6781 63° Northeast 503 579 41,000  Level Houston Center
Thu 10:46:31 AM 31.1892 -90.5306 64° Northeast 504 580 41,000  Level Houston Center
Thu 10:47:31 AM 31.2639 -90.3542 64° Northeast 503 579 41,000  Level Houston Center
Thu 10:48:33 AM 31.3189 -90.2042 67° East 501 577 41,000  Level Houston Center
Thu 10:49:35 AM 31.3578 -90.0442 74° East 508 585 41,000  Level Houston Center
Thu 10:50:37 AM 31.3981 -89.8861 73° East 506 582 41,000  Level Houston Center
Thu 10:51:39 AM 31.4364 -89.7261 74° East 508 585 41,000  Level Houston Center
Thu 10:52:41 AM 31.4756 -89.5678 74° East 506 582 41,000  Level Houston Center
Thu 10:53:44 AM 31.5156 -89.3983 74° East 505 581 41,000  Level Houston Center
Thu 10:54:46 AM 31.5550 -89.2408 74° East 503 579 41,000  Level Houston Center
Thu 10:55:48 AM 31.6011 -89.0517 74° East 503 579 41,000  Level Houston Center
Thu 10:56:50 AM 31.6383 -88.8928 75° East 503 579 41,000  Level Houston Center
Thu 10:57:52 AM 31.6769 -88.7331 74° East 506 582 41,000  Level Houston Center
Thu 10:58:54 AM 31.7136 -88.5747 75° East 501 577 41,000  Level Houston Center
Thu 10:59:32 AM 31.7375 -88.4853 73° East 493 567 41,000  Level Atlanta Center
Thu 11:00:32 AM 31.7744 -88.3283 74° East 487 560 41,000  Level Atlanta Center
Thu 11:01:32 AM 31.8111 -88.1714 75° East 487 560 41,000  Level Atlanta Center
Thu 11:02:32 AM 31.8475 -88.0189 74° East 487 560 41,000  Level Atlanta Center
Thu 11:03:32 AM 31.8836 -87.8642 75° East 487 560 41,000  Level Atlanta Center
Thu 11:04:32 AM 31.9258 -87.7092 72° East 487 560 41,000  Level Atlanta Center
Thu 11:05:32 AM 31.9925 -87.5750 60° Northeast 481 554 41,000  Level Atlanta Center
Thu 11:06:32 AM 32.0711 -87.4456 54° Northeast 475 547 41,000  Level Atlanta Center
Thu 11:07:32 AM 32.1433 -87.3183 56° Northeast 475 547 41,000  Level Atlanta Center
Thu 11:08:32 AM 32.2178 -87.1861 56° Northeast 470 541 41,000  Level Atlanta Center
Thu 11:09:32 AM 32.2922 -87.0561 56° Northeast 476 548 41,000  Level Atlanta Center
Thu 11:10:32 AM 32.3639 -86.9283 56° Northeast 476 548 41,000  Level Atlanta Center
Thu 11:11:32 AM 32.4381 -86.7978 56° Northeast 476 548 41,000  Level Atlanta Center
Thu 11:12:32 AM 32.5139 -86.6694 55° Northeast 476 548 41,000  Level Atlanta Center
Thu 11:13:32 AM 32.5875 -86.5411 56° Northeast 476 548 41,000  Level Atlanta Center
Thu 11:14:32 AM 32.6611 -86.4050 57° Northeast 476 548 41,000  Level Atlanta Center
Thu 11:15:32 AM 32.7344 -86.2761 56° Northeast 476 548 41,000  Level Atlanta Center
Thu 11:16:32 AM 32.8100 -86.1444 56° Northeast 476 548 41,000  Level Atlanta Center
Thu 11:17:32 AM 32.8789 -86.0150 58° Northeast 476 548 41,000  Level Atlanta Center
Thu 11:18:32 AM 32.9519 -85.8831 57° Northeast 476 548 41,000  Level Atlanta Center
Thu 11:19:32 AM 33.0289 -85.7508 55° Northeast 476 548 41,000  Level Atlanta Center
Thu 11:20:32 AM 33.0975 -85.6158 59° Northeast 476 548 41,000  Level Atlanta Center
Thu 11:21:32 AM 33.1700 -85.4856 56° Northeast 476 548 41,000  Level Atlanta Center
Thu 11:22:32 AM 33.2508 -85.3478 55° Northeast 470 541 41,000  Level Atlanta Center
Thu 11:23:32 AM 33.3211 -85.2172 57° Northeast 470 541 41,000  Level Atlanta Center
Thu 11:24:32 AM 33.3933 -85.0839 57° Northeast 470 541 41,000  Level Atlanta Center
Thu 11:25:32 AM 33.4672 -84.9503 56° Northeast 477 549 41,000  Level Atlanta Center
Thu 11:26:32 AM 33.5392 -84.8139 58° Northeast 477 549 41,000  Level Atlanta Center
Thu 11:27:32 AM 33.6047 -84.6947 57° Northeast 477 549 41,000  Level Atlanta Center
Thu 11:28:32 AM 33.6783 -84.5606 57° Northeast 477 549 41,000  Level Atlanta Center
Thu 11:29:32 AM 33.7519 -84.4086 60° Northeast 471 542 41,000  Level Atlanta Center
Thu 11:30:32 AM 33.8294 -84.2714 56° Northeast 476 548 41,000  Level Atlanta Center
Thu 11:31:32 AM 33.9047 -84.1264 58° Northeast 495 570 41,000  Level Atlanta Center
Thu 11:32:32 AM 33.9778 -83.9886 57° Northeast 495 570 41,000  Level Atlanta Center
Thu 11:33:32 AM 34.0508 -83.8533 57° Northeast 495 570 41,000  Level Atlanta Center
Thu 11:34:32 AM 34.1214 -83.7150 58° Northeast 486 559 41,000  Level Atlanta Center
Thu 11:35:32 AM 34.1878 -83.5892 57° Northeast 486 559 41,000  Level Atlanta Center
Thu 11:36:32 AM 34.2583 -83.4531 58° Northeast 481 554 41,000  Level Atlanta Center
Thu 11:37:32 AM 34.3286 -83.3144 58° Northeast 481 554 41,000  Level Atlanta Center
Thu 11:38:32 AM 34.4006 -83.1753 58° Northeast 481 554 41,000  Level Atlanta Center
Thu 11:39:32 AM 34.4725 -83.0358 58° Northeast 476 548 41,000  Level Atlanta Center
Thu 11:40:32 AM 34.5444 -82.8964 58° Northeast 485 558 41,000  Level Atlanta Center
Thu 11:41:32 AM 34.6142 -82.7567 59° Northeast 477 549 41,000  Level Atlanta Center
Thu 11:42:32 AM 34.6958 -82.6114 56° Northeast 477 549 41,000  Level Atlanta Center
Thu 11:43:32 AM 34.7653 -82.4736 58° Northeast 477 549 41,000  Level Atlanta Center
Thu 11:44:32 AM 34.8386 -82.3381 57° Northeast 477 549 41,000  Level Atlanta Center
Thu 11:45:32 AM 34.9094 -82.2025 57° Northeast 477 549 41,000  Level Atlanta Center
Thu 11:46:32 AM 34.9828 -82.0717 56° Northeast 477 549 41,000  Level Atlanta Center
Thu 11:47:32 AM 35.0533 -81.9328 58° Northeast 472 543 41,000  Level Atlanta Center
Thu 11:48:32 AM 35.1261 -81.7939 57° Northeast 481 554 41,000  Level Atlanta Center
Thu 11:49:32 AM 35.1986 -81.6522 58° Northeast 487 560 41,000  Level Atlanta Center
Thu 11:50:32 AM 35.2708 -81.5128 58° Northeast 487 560 41,000  Level Atlanta Center
Thu 11:51:32 AM 35.3428 -81.3678 59° Northeast 487 560 41,000  Level Atlanta Center
Thu 11:52:32 AM 35.4128 -81.2231 59° Northeast 492 566 41,000  Level Atlanta Center
Thu 11:53:32 AM 35.4883 -81.0750 58° Northeast 492 566 41,000  Level Atlanta Center
Thu 11:54:32 AM 35.5642 -80.9317 57° Northeast 498 573 41,000  Level Atlanta Center
Thu 11:55:32 AM 35.6356 -80.7911 58° Northeast 490 564 41,000  Level Atlanta Center
Thu 11:56:32 AM 35.7050 -80.6553 58° Northeast 479 551 41,000  Level Atlanta Center
Thu 11:58:22 AM 35.8250 -80.4183 58° Northeast 477 549 41,000  Level Washington Center
Thu 11:59:20 AM 35.8933 -80.2764 59° Northeast 477 549 41,000  Level Washington Center
Thu 12:00:21 PM 35.9633 -80.1342 59° Northeast 477 549 41,000  Level Washington Center
Thu 12:01:21 PM 36.0422 -79.9822 57° Northeast 477 549 41,000  Level Washington Center
Thu 12:03:00 PM 36.1518 -79.7710 55° Northeast  Level FlightAware Approximate
Thu 12:03:22 PM 36.1956 -79.7128 55° Northeast 477 549 41,000  Level Washington Center
Thu 12:04:19 PM 36.2733 -79.5750 55° Northeast 477 549 41,000  Level Washington Center
Thu 12:05:21 PM 36.3508 -79.4397 55° Northeast 477 549 41,000  Level Washington Center
Thu 12:06:22 PM 36.4242 -79.2989 57° Northeast 477 549 41,000  Level Washington Center
Thu 12:07:20 PM 36.4947 -79.1756 55° Northeast 482 555 41,000  Level Washington Center
Thu 12:08:22 PM 36.5806 -79.0269 54° Northeast 482 555 41,000  Level Washington Center
Thu 12:09:20 PM 36.6628 -78.9217 46° Northeast 482 555 41,000  Level Washington Center
Thu 12:10:20 PM 36.7722 -78.8019 41° Northeast 471 542 41,000  Level Washington Center
Thu 12:11:20 PM 36.8731 -78.6997 39° Northeast 466 536 41,000  Level Washington Center
Thu 12:12:21 PM 36.9697 -78.5969 40° Northeast 466 536 41,000 -496 Level Washington Center
Thu 12:13:21 PM 37.0703 -78.4942 39° Northeast 466 536 40,000 -1,307 Descending Washington Center
Thu 12:15:20 PM 37.2647 -78.2903 40° Northeast 466 536 37,100 -1,293 Descending Washington Center
Thu 12:16:22 PM 37.3653 -78.1842 40° Northeast 466 536 36,100 -555 Descending Washington Center
Thu 12:17:19 PM 37.4633 -78.0800 40° Northeast 466 536 36,000 -51 Descending Washington Center
Thu 12:18:20 PM 37.5636 -77.9733 40° Northeast 466 536 36,000  Level Washington Center
Thu 12:19:20 PM 37.6636 -77.8664 40° Northeast 466 536 36,000  Level Washington Center
Thu 12:20:21 PM 37.7636 -77.7617 40° Northeast 466 536 36,000  Level Washington Center
Thu 12:21:21 PM 37.8614 -77.6539 41° Northeast 461 531 36,000  Level Washington Center
Thu 12:22:21 PM 37.9592 -77.5486 40° Northeast 461 531 36,000  Level Washington Center
Thu 12:23:22 PM 38.0675 -77.4300 41° Northeast 461 531 36,000  Level Washington Center
Thu 12:24:20 PM 38.1669 -77.3217 41° Northeast 461 531 36,000 -712 Level Washington Center
Thu 12:25:20 PM 38.2667 -77.2128 41° Northeast 466 536 34,600 -1,388 Descending Washington Center
Thu 12:26:21 PM 38.3658 -77.1064 40° Northeast 466 536 33,200 -1,339 Descending Washington Center
Thu 12:27:21 PM 38.4653 -76.9944 41° Northeast 466 536 31,900 -1,300 Descending Washington Center
Thu 12:28:21 PM 38.5686 -76.8847 40° Northeast 466 536 30,600 -1,271 Descending Washington Center
Thu 12:29:19 PM 38.6700 -76.7669 42° Northeast 466 536 29,400 -1,200 Descending Washington Center
Thu 12:30:21 PM 38.7689 -76.6567 41° Northeast 466 536 28,200 -1,180 Descending Washington Center
Thu 12:31:21 PM 38.8658 -76.5461 42° Northeast 466 536 27,000 -1,200 Descending Washington Center
Thu 12:32:21 PM 38.9625 -76.4406 40° Northeast 461 531 25,800 -1,190 Descending Washington Center
Thu 12:33:22 PM 39.0592 -76.3294 42° Northeast 461 531 24,600 -885 Descending Washington Center
Thu 12:34:23 PM 39.1533 -76.2258 40° Northeast 461 531 24,000 -305 Descending Washington Center
Thu 12:35:20 PM 39.2394 -76.1303 41° Northeast 461 531 24,000  Level Washington Center
Thu 12:36:22 PM 39.3356 -76.0317 38° Northeast 455 524 24,000 -1,272 Level Washington Center
Thu 12:38:24 PM 39.5500 -75.8333 35° Northeast 432 497 20,100 -2,242 Descending Philadelphia TRACON
Thu 12:39:24 PM 39.6500 -75.7333 38° Northeast 401 461 17,200 -3,050 Descending Philadelphia TRACON
Thu 12:40:24 PM 39.7333 -75.6500 38° Northeast 391 450 14,000 -2,100 Descending Philadelphia TRACON
Thu 12:41:24 PM 39.8167 -75.5833 32° Northeast 366 421 13,000 -500 Descending Philadelphia TRACON
Thu 12:42:24 PM 39.9000 -75.5000 37° Northeast 375 432 13,000  Level Philadelphia TRACON
Thu 12:43:24 PM 39.9833 -75.4167 37° Northeast 378 435 13,000  Level Philadelphia TRACON
Thu 12:44:24 PM 40.0667 -75.3500 31° Northeast 381 438 13,000  Level Philadelphia TRACON
Thu 12:45:24 PM 40.1667 -75.2667 32° Northeast 381 438 13,000 -800 Level Philadelphia TRACON
Thu 12:46:24 PM 40.2333 -75.2000 37° Northeast 306 352 11,400 -1,700 Descending Philadelphia TRACON
Thu 12:48:24 PM 40.3667 -75.0500 41° Northeast 309 356 7,900 -1,733 Descending New York TRACON
Thu 12:49:24 PM 40.4167 -74.9667 52° Northeast 301 346 6,200 -1,550 Descending New York TRACON
Thu 12:50:24 PM 40.4833 -74.8833 44° Northeast 287 330 4,800 -1,263 Descending New York TRACON
Thu 12:51:18 PM 40.5167 -74.8333 49° Northeast 272 313 3,800 -947 Descending New York TRACON
Thu 12:52:18 PM 40.5667 -74.7500 52° Northeast 265 305 3,000 -400 Descending New York TRACON
Thu 12:53:18 PM 40.6333 -74.7000 30° Northeast 268 308 3,000  Level New York TRACON
Thu 12:54:18 PM 40.7000 -74.6667 21° North 273 314 3,000  Level New York TRACON
Thu 12:55:24 PM 40.7833 -74.6167 24° Northeast 271 312 3,000  Level New York TRACON
Thu 12:56:24 PM 40.8500 -74.6167 360° North 265 305 3,000  Level New York TRACON
Thu 12:57:24 PM 40.9333 -74.6000 North 255 293 3,000 53 Level New York TRACON
Thu 12:58:18 PM 40.9833 -74.5667 27° Northeast 252 290 3,100  Climbing New York TRACON
Thu 12:59:18 PM 41.0167 -74.5000 56° Northeast 264 304 3,000  Descending New York TRACON
Thu 01:00:18 PM 41.0500 -74.4000 66° East 252 290 3,100  Climbing New York TRACON
Thu 01:01:18 PM 41.0500 -74.3167 90° East 253 291 3,000 -50 Descending New York TRACON
Thu 01:02:18 PM 41.0167 -74.2333 118° Southeast 249 287 3,000 -200 Level New York TRACON
Thu 01:03:18 PM 41.0000 -74.1500 105° East 228 262 2,600 -500 Descending New York TRACON
Thu 01:04:18 PM 40.9500 -74.0833 135° Southeast 216 249 2,000 -571 Descending New York TRACON
Thu 01:05:24 PM 40.9167 -74.0500 143° Southeast 188 216 1,400 -619 Descending New York TRACON
Thu 01:06:24 PM 40.8667 -74.0333 166° South 125 144 700 -700 Descending New York TRACON
Thu 01:08:00 PM 40.8500 -74.0500 157° South  Level FlightAware Approximate
Thu 01:15:00 PM 40.8501 -74.0608 157° South  Level Estimated

Login

Don't have an account? Register now (free) for customized features, flight alerts, and more!